sensor_id;sensor_type;location;lat;lon;timestamp;P1;durP1;ratioP1;P2;durP2;ratioP2
6979;SDS011;3530;52.832;10.680;2024-03-22T00:02:28;8.98;;;6.45;;
6979;SDS011;3530;52.832;10.680;2024-03-22T00:05:14;7.53;;;6.43;;
6979;SDS011;3530;52.832;10.680;2024-03-22T00:08:02;11.05;;;7.03;;
6979;SDS011;3530;52.832;10.680;2024-03-22T00:10:47;10.88;;;7.63;;
6979;SDS011;3530;52.832;10.680;2024-03-22T00:13:34;11.30;;;8.55;;
6979;SDS011;3530;52.832;10.680;2024-03-22T00:16:19;16.63;;;11.43;;
6979;SDS011;3530;52.832;10.680;2024-03-22T00:19:05;13.90;;;9.20;;
6979;SDS011;3530;52.832;10.680;2024-03-22T00:21:51;13.95;;;8.85;;
6979;SDS011;3530;52.832;10.680;2024-03-22T00:24:36;16.35;;;7.53;;
6979;SDS011;3530;52.832;10.680;2024-03-22T00:27:22;10.35;;;7.32;;
6979;SDS011;3530;52.832;10.680;2024-03-22T00:30:08;11.02;;;7.65;;
6979;SDS011;3530;52.832;10.680;2024-03-22T00:32:54;10.75;;;7.05;;
6979;SDS011;3530;52.832;10.680;2024-03-22T00:35:39;12.73;;;7.35;;
6979;SDS011;3530;52.832;10.680;2024-03-22T00:38:25;12.05;;;7.15;;
6979;SDS011;3530;52.832;10.680;2024-03-22T00:41:11;8.23;;;7.13;;
6979;SDS011;3530;52.832;10.680;2024-03-22T00:43:56;11.10;;;8.43;;
6979;SDS011;3530;52.832;10.680;2024-03-22T00:46:43;10.18;;;8.00;;
6979;SDS011;3530;52.832;10.680;2024-03-22T00:49:29;14.13;;;9.02;;
6979;SDS011;3530;52.832;10.680;2024-03-22T00:52:15;12.05;;;7.57;;
6979;SDS011;3530;52.832;10.680;2024-03-22T00:55:00;10.77;;;7.43;;
6979;SDS011;3530;52.832;10.680;2024-03-22T00:57:46;10.52;;;7.35;;
6979;SDS011;3530;52.832;10.680;2024-03-22T01:00:32;12.60;;;8.27;;
6979;SDS011;3530;52.832;10.680;2024-03-22T01:03:17;12.20;;;8.32;;
6979;SDS011;3530;52.832;10.680;2024-03-22T01:06:03;10.80;;;8.05;;
6979;SDS011;3530;52.832;10.680;2024-03-22T01:08:49;12.25;;;7.75;;
6979;SDS011;3530;52.832;10.680;2024-03-22T01:11:34;6.68;;;5.68;;
6979;SDS011;3530;52.832;10.680;2024-03-22T01:14:20;10.65;;;7.60;;
6979;SDS011;3530;52.832;10.680;2024-03-22T01:17:06;7.28;;;6.20;;
6979;SDS011;3530;52.832;10.680;2024-03-22T01:19:51;9.38;;;7.10;;
6979;SDS011;3530;52.832;10.680;2024-03-22T01:22:37;12.15;;;8.25;;
6979;SDS011;3530;52.832;10.680;2024-03-22T01:25:23;8.77;;;6.28;;
6979;SDS011;3530;52.832;10.680;2024-03-22T01:28:08;12.60;;;8.75;;
6979;SDS011;3530;52.832;10.680;2024-03-22T01:30:54;17.00;;;9.20;;
6979;SDS011;3530;52.832;10.680;2024-03-22T01:33:39;17.38;;;10.57;;
6979;SDS011;3530;52.832;10.680;2024-03-22T01:36:25;14.90;;;9.20;;
6979;SDS011;3530;52.832;10.680;2024-03-22T01:39:11;11.98;;;9.52;;
6979;SDS011;3530;52.832;10.680;2024-03-22T01:41:56;11.63;;;7.50;;
6979;SDS011;3530;52.832;10.680;2024-03-22T01:44:42;19.17;;;9.88;;
6979;SDS011;3530;52.832;10.680;2024-03-22T01:47:28;13.15;;;9.55;;
6979;SDS011;3530;52.832;10.680;2024-03-22T01:50:13;15.35;;;10.15;;
6979;SDS011;3530;52.832;10.680;2024-03-22T01:53:00;13.43;;;9.30;;
6979;SDS011;3530;52.832;10.680;2024-03-22T01:55:46;12.60;;;8.10;;
6979;SDS011;3530;52.832;10.680;2024-03-22T01:58:31;16.23;;;9.05;;
6979;SDS011;3530;52.832;10.680;2024-03-22T02:01:17;13.77;;;9.65;;
6979;SDS011;3530;52.832;10.680;2024-03-22T02:04:03;15.80;;;10.25;;
6979;SDS011;3530;52.832;10.680;2024-03-22T02:06:49;13.90;;;9.23;;
6979;SDS011;3530;52.832;10.680;2024-03-22T02:09:34;16.40;;;9.27;;
6979;SDS011;3530;52.832;10.680;2024-03-22T02:12:21;12.88;;;8.90;;
6979;SDS011;3530;52.832;10.680;2024-03-22T02:15:07;13.23;;;10.23;;
6979;SDS011;3530;52.832;10.680;2024-03-22T02:17:53;12.90;;;10.02;;
6979;SDS011;3530;52.832;10.680;2024-03-22T02:20:39;16.38;;;11.25;;
6979;SDS011;3530;52.832;10.680;2024-03-22T02:23:34;12.23;;;9.95;;
6979;SDS011;3530;52.832;10.680;2024-03-22T02:26:21;10.07;;;7.57;;
6979;SDS011;3530;52.832;10.680;2024-03-22T02:29:06;16.63;;;10.50;;
6979;SDS011;3530;52.832;10.680;2024-03-22T02:31:53;15.02;;;10.05;;
6979;SDS011;3530;52.832;10.680;2024-03-22T02:34:38;18.60;;;12.32;;
6979;SDS011;3530;52.832;10.680;2024-03-22T02:37:24;20.23;;;12.35;;
6979;SDS011;3530;52.832;10.680;2024-03-22T02:40:10;13.25;;;10.13;;
6979;SDS011;3530;52.832;10.680;2024-03-22T02:42:56;14.90;;;10.43;;
6979;SDS011;3530;52.832;10.680;2024-03-22T02:45:41;19.13;;;11.48;;
6979;SDS011;3530;52.832;10.680;2024-03-22T02:48:27;19.42;;;11.73;;
6979;SDS011;3530;52.832;10.680;2024-03-22T02:51:14;16.75;;;11.32;;
6979;SDS011;3530;52.832;10.680;2024-03-22T02:53:59;20.95;;;12.95;;
6979;SDS011;3530;52.832;10.680;2024-03-22T02:56:45;14.00;;;10.98;;
6979;SDS011;3530;52.832;10.680;2024-03-22T02:59:31;14.52;;;9.82;;
6979;SDS011;3530;52.832;10.680;2024-03-22T03:02:16;20.90;;;12.27;;
6979;SDS011;3530;52.832;10.680;2024-03-22T03:05:02;22.00;;;13.57;;
6979;SDS011;3530;52.832;10.680;2024-03-22T03:07:48;22.25;;;12.90;;
6979;SDS011;3530;52.832;10.680;2024-03-22T03:10:35;21.13;;;13.32;;
6979;SDS011;3530;52.832;10.680;2024-03-22T03:13:21;20.80;;;13.85;;
6979;SDS011;3530;52.832;10.680;2024-03-22T03:16:07;22.67;;;14.95;;
6979;SDS011;3530;52.832;10.680;2024-03-22T03:18:53;22.73;;;14.55;;
6979;SDS011;3530;52.832;10.680;2024-03-22T03:21:38;19.25;;;11.45;;
6979;SDS011;3530;52.832;10.680;2024-03-22T03:24:24;24.67;;;15.02;;
6979;SDS011;3530;52.832;10.680;2024-03-22T03:27:09;21.13;;;13.65;;
6979;SDS011;3530;52.832;10.680;2024-03-22T03:29:55;23.63;;;15.52;;
6979;SDS011;3530;52.832;10.680;2024-03-22T03:32:41;18.10;;;12.70;;
6979;SDS011;3530;52.832;10.680;2024-03-22T03:35:26;22.58;;;12.68;;
6979;SDS011;3530;52.832;10.680;2024-03-22T03:38:14;22.33;;;14.73;;
6979;SDS011;3530;52.832;10.680;2024-03-22T03:41:00;21.38;;;13.27;;
6979;SDS011;3530;52.832;10.680;2024-03-22T03:43:45;22.48;;;12.15;;
6979;SDS011;3530;52.832;10.680;2024-03-22T03:46:31;24.90;;;15.80;;
6979;SDS011;3530;52.832;10.680;2024-03-22T03:49:17;27.38;;;16.63;;
6979;SDS011;3530;52.832;10.680;2024-03-22T03:52:02;15.25;;;11.15;;
6979;SDS011;3530;52.832;10.680;2024-03-22T03:54:48;25.23;;;14.82;;
6979;SDS011;3530;52.832;10.680;2024-03-22T03:57:34;26.77;;;14.45;;
6979;SDS011;3530;52.832;10.680;2024-03-22T04:00:19;22.30;;;15.02;;
6979;SDS011;3530;52.832;10.680;2024-03-22T04:03:05;28.67;;;17.52;;
6979;SDS011;3530;52.832;10.680;2024-03-22T04:05:57;27.77;;;16.77;;
6979;SDS011;3530;52.832;10.680;2024-03-22T04:08:43;28.13;;;16.05;;
6979;SDS011;3530;52.832;10.680;2024-03-22T04:11:29;21.88;;;14.60;;
6979;SDS011;3530;52.832;10.680;2024-03-22T04:14:14;35.15;;;18.83;;
6979;SDS011;3530;52.832;10.680;2024-03-22T04:17:00;26.17;;;16.48;;
6979;SDS011;3530;52.832;10.680;2024-03-22T04:19:46;28.05;;;17.08;;
6979;SDS011;3530;52.832;10.680;2024-03-22T04:22:31;29.88;;;17.27;;
6979;SDS011;3530;52.832;10.680;2024-03-22T04:25:17;27.85;;;16.30;;
6979;SDS011;3530;52.832;10.680;2024-03-22T04:28:03;35.28;;;19.70;;
6979;SDS011;3530;52.832;10.680;2024-03-22T04:31:03;30.17;;;17.33;;
6979;SDS011;3530;52.832;10.680;2024-03-22T04:33:50;23.85;;;16.02;;
6979;SDS011;3530;52.832;10.680;2024-03-22T04:36:35;41.50;;;20.67;;
6979;SDS011;3530;52.832;10.680;2024-03-22T04:39:22;28.15;;;16.55;;
6979;SDS011;3530;52.832;10.680;2024-03-22T04:42:07;29.05;;;17.25;;
6979;SDS011;3530;52.832;10.680;2024-03-22T04:44:53;35.47;;;18.77;;
6979;SDS011;3530;52.832;10.680;2024-03-22T04:47:39;29.58;;;18.35;;
6979;SDS011;3530;52.832;10.680;2024-03-22T04:50:26;32.00;;;17.88;;
6979;SDS011;3530;52.832;10.680;2024-03-22T04:53:12;32.33;;;20.27;;
6979;SDS011;3530;52.832;10.680;2024-03-22T04:55:58;40.03;;;23.88;;
6979;SDS011;3530;52.832;10.680;2024-03-22T04:58:43;27.75;;;17.38;;
6979;SDS011;3530;52.832;10.680;2024-03-22T05:01:29;36.38;;;18.25;;
6979;SDS011;3530;52.832;10.680;2024-03-22T05:04:14;31.40;;;19.60;;
6979;SDS011;3530;52.832;10.680;2024-03-22T05:07:00;29.38;;;18.42;;
6979;SDS011;3530;52.832;10.680;2024-03-22T05:09:46;29.13;;;17.15;;
6979;SDS011;3530;52.832;10.680;2024-03-22T05:12:31;33.28;;;18.55;;
6979;SDS011;3530;52.832;10.680;2024-03-22T05:15:17;32.50;;;19.27;;
6979;SDS011;3530;52.832;10.680;2024-03-22T05:18:03;33.13;;;19.25;;
6979;SDS011;3530;52.832;10.680;2024-03-22T05:20:49;29.42;;;17.90;;
6979;SDS011;3530;52.832;10.680;2024-03-22T05:23:34;35.70;;;20.67;;
6979;SDS011;3530;52.832;10.680;2024-03-22T05:26:20;37.70;;;20.73;;
6979;SDS011;3530;52.832;10.680;2024-03-22T05:29:06;37.53;;;19.58;;
6979;SDS011;3530;52.832;10.680;2024-03-22T05:31:52;37.35;;;21.17;;
6979;SDS011;3530;52.832;10.680;2024-03-22T05:34:37;33.45;;;19.08;;
6979;SDS011;3530;52.832;10.680;2024-03-22T05:37:23;40.60;;;20.92;;
6979;SDS011;3530;52.832;10.680;2024-03-22T05:40:09;24.50;;;16.63;;
6979;SDS011;3530;52.832;10.680;2024-03-22T05:42:55;40.25;;;21.17;;
6979;SDS011;3530;52.832;10.680;2024-03-22T05:45:41;34.70;;;18.80;;
6979;SDS011;3530;52.832;10.680;2024-03-22T05:48:27;35.50;;;19.02;;
6979;SDS011;3530;52.832;10.680;2024-03-22T05:51:13;41.17;;;22.90;;
6979;SDS011;3530;52.832;10.680;2024-03-22T05:53:59;37.40;;;20.98;;
6979;SDS011;3530;52.832;10.680;2024-03-22T05:56:45;41.95;;;22.13;;
6979;SDS011;3530;52.832;10.680;2024-03-22T05:59:31;34.38;;;21.15;;
6979;SDS011;3530;52.832;10.680;2024-03-22T06:02:16;36.70;;;20.83;;
6979;SDS011;3530;52.832;10.680;2024-03-22T06:05:02;37.78;;;21.85;;
6979;SDS011;3530;52.832;10.680;2024-03-22T06:07:48;44.42;;;22.13;;
6979;SDS011;3530;52.832;10.680;2024-03-22T06:10:33;41.83;;;22.77;;
6979;SDS011;3530;52.832;10.680;2024-03-22T06:13:19;43.95;;;22.52;;
6979;SDS011;3530;52.832;10.680;2024-03-22T06:16:05;32.88;;;19.27;;
6979;SDS011;3530;52.832;10.680;2024-03-22T06:18:51;36.15;;;20.83;;
6979;SDS011;3530;52.832;10.680;2024-03-22T06:21:36;46.97;;;23.60;;
6979;SDS011;3530;52.832;10.680;2024-03-22T06:24:22;36.83;;;21.00;;
6979;SDS011;3530;52.832;10.680;2024-03-22T06:27:08;36.08;;;20.63;;
6979;SDS011;3530;52.832;10.680;2024-03-22T06:29:53;41.47;;;22.42;;
6979;SDS011;3530;52.832;10.680;2024-03-22T06:32:39;48.85;;;24.88;;
6979;SDS011;3530;52.832;10.680;2024-03-22T06:35:25;40.03;;;22.02;;
6979;SDS011;3530;52.832;10.680;2024-03-22T06:38:11;41.05;;;22.05;;
6979;SDS011;3530;52.832;10.680;2024-03-22T06:40:56;42.78;;;22.30;;
6979;SDS011;3530;52.832;10.680;2024-03-22T06:43:44;46.30;;;23.60;;
6979;SDS011;3530;52.832;10.680;2024-03-22T06:46:29;42.17;;;22.60;;
6979;SDS011;3530;52.832;10.680;2024-03-22T06:49:15;38.40;;;21.63;;
6979;SDS011;3530;52.832;10.680;2024-03-22T06:52:01;37.38;;;20.83;;
6979;SDS011;3530;52.832;10.680;2024-03-22T06:54:46;48.08;;;22.40;;
6979;SDS011;3530;52.832;10.680;2024-03-22T06:57:32;39.97;;;22.05;;
6979;SDS011;3530;52.832;10.680;2024-03-22T07:00:19;47.78;;;23.95;;
6979;SDS011;3530;52.832;10.680;2024-03-22T07:03:05;30.15;;;17.60;;
6979;SDS011;3530;52.832;10.680;2024-03-22T07:05:50;42.42;;;22.88;;
6979;SDS011;3530;52.832;10.680;2024-03-22T07:08:36;44.08;;;23.73;;
6979;SDS011;3530;52.832;10.680;2024-03-22T07:11:21;44.42;;;21.55;;
6979;SDS011;3530;52.832;10.680;2024-03-22T07:14:07;41.33;;;20.85;;
6979;SDS011;3530;52.832;10.680;2024-03-22T07:16:53;37.20;;;20.85;;
6979;SDS011;3530;52.832;10.680;2024-03-22T07:19:41;41.25;;;21.73;;
6979;SDS011;3530;52.832;10.680;2024-03-22T07:22:28;35.17;;;17.83;;
6979;SDS011;3530;52.832;10.680;2024-03-22T07:25:13;42.63;;;22.88;;
6979;SDS011;3530;52.832;10.680;2024-03-22T07:27:59;43.83;;;21.45;;
6979;SDS011;3530;52.832;10.680;2024-03-22T07:30:45;41.25;;;21.80;;
6979;SDS011;3530;52.832;10.680;2024-03-22T07:33:31;43.63;;;20.48;;
6979;SDS011;3530;52.832;10.680;2024-03-22T07:36:17;44.33;;;22.00;;
6979;SDS011;3530;52.832;10.680;2024-03-22T07:39:02;39.05;;;21.55;;
6979;SDS011;3530;52.832;10.680;2024-03-22T07:41:51;41.85;;;21.73;;
6979;SDS011;3530;52.832;10.680;2024-03-22T07:44:37;36.78;;;20.10;;
6979;SDS011;3530;52.832;10.680;2024-03-22T07:47:22;40.47;;;20.33;;
6979;SDS011;3530;52.832;10.680;2024-03-22T07:50:08;33.55;;;18.80;;
6979;SDS011;3530;52.832;10.680;2024-03-22T07:52:54;47.08;;;23.33;;
6979;SDS011;3530;52.832;10.680;2024-03-22T07:55:39;36.75;;;19.38;;
6979;SDS011;3530;52.832;10.680;2024-03-22T07:58:25;39.25;;;21.80;;
6979;SDS011;3530;52.832;10.680;2024-03-22T08:01:11;46.08;;;23.13;;
6979;SDS011;3530;52.832;10.680;2024-03-22T08:03:56;39.85;;;20.33;;
6979;SDS011;3530;52.832;10.680;2024-03-22T08:06:42;43.60;;;23.40;;
6979;SDS011;3530;52.832;10.680;2024-03-22T08:09:28;45.47;;;23.73;;
6979;SDS011;3530;52.832;10.680;2024-03-22T08:12:13;46.67;;;22.92;;
6979;SDS011;3530;52.832;10.680;2024-03-22T08:14:59;49.33;;;22.80;;
6979;SDS011;3530;52.832;10.680;2024-03-22T08:17:45;41.90;;;20.75;;
6979;SDS011;3530;52.832;10.680;2024-03-22T08:20:30;45.38;;;22.73;;
6979;SDS011;3530;52.832;10.680;2024-03-22T08:23:19;37.88;;;20.05;;
6979;SDS011;3530;52.832;10.680;2024-03-22T08:26:05;47.45;;;22.15;;
6979;SDS011;3530;52.832;10.680;2024-03-22T08:28:51;38.72;;;20.75;;
6979;SDS011;3530;52.832;10.680;2024-03-22T08:31:37;39.55;;;20.73;;
6979;SDS011;3530;52.832;10.680;2024-03-22T08:34:22;31.42;;;16.02;;
6979;SDS011;3530;52.832;10.680;2024-03-22T08:37:08;35.25;;;18.02;;
6979;SDS011;3530;52.832;10.680;2024-03-22T08:39:54;36.83;;;19.63;;
6979;SDS011;3530;52.832;10.680;2024-03-22T08:42:40;38.05;;;18.25;;
6979;SDS011;3530;52.832;10.680;2024-03-22T08:45:25;36.88;;;19.38;;
6979;SDS011;3530;52.832;10.680;2024-03-22T08:48:11;36.78;;;19.55;;
6979;SDS011;3530;52.832;10.680;2024-03-22T08:50:57;36.17;;;20.38;;
6979;SDS011;3530;52.832;10.680;2024-03-22T08:53:42;41.15;;;20.90;;
6979;SDS011;3530;52.832;10.680;2024-03-22T08:56:28;38.40;;;19.20;;
6979;SDS011;3530;52.832;10.680;2024-03-22T08:59:14;35.85;;;19.05;;
6979;SDS011;3530;52.832;10.680;2024-03-22T09:01:59;35.40;;;20.85;;
6979;SDS011;3530;52.832;10.680;2024-03-22T09:04:45;38.35;;;19.20;;
6979;SDS011;3530;52.832;10.680;2024-03-22T09:07:32;40.83;;;20.38;;
6979;SDS011;3530;52.832;10.680;2024-03-22T09:10:17;33.65;;;19.60;;
6979;SDS011;3530;52.832;10.680;2024-03-22T09:13:03;35.92;;;19.35;;
6979;SDS011;3530;52.832;10.680;2024-03-22T09:15:49;36.15;;;20.15;;
6979;SDS011;3530;52.832;10.680;2024-03-22T09:18:41;38.38;;;20.17;;
6979;SDS011;3530;52.832;10.680;2024-03-22T09:21:27;37.95;;;17.83;;
6979;SDS011;3530;52.832;10.680;2024-03-22T09:24:13;37.78;;;20.15;;
6979;SDS011;3530;52.832;10.680;2024-03-22T09:26:59;33.22;;;18.75;;
6979;SDS011;3530;52.832;10.680;2024-03-22T09:29:44;39.00;;;19.05;;
6979;SDS011;3530;52.832;10.680;2024-03-22T09:32:30;38.92;;;19.90;;
6979;SDS011;3530;52.832;10.680;2024-03-22T09:35:15;37.47;;;19.52;;
6979;SDS011;3530;52.832;10.680;2024-03-22T09:38:03;36.10;;;19.42;;
6979;SDS011;3530;52.832;10.680;2024-03-22T09:40:48;36.25;;;18.58;;
6979;SDS011;3530;52.832;10.680;2024-03-22T09:43:39;38.00;;;20.13;;
6979;SDS011;3530;52.832;10.680;2024-03-22T09:46:25;39.58;;;19.60;;
6979;SDS011;3530;52.832;10.680;2024-03-22T09:49:10;32.60;;;16.92;;
6979;SDS011;3530;52.832;10.680;2024-03-22T09:51:57;36.63;;;19.27;;
6979;SDS011;3530;52.832;10.680;2024-03-22T09:54:43;25.70;;;16.42;;
6979;SDS011;3530;52.832;10.680;2024-03-22T09:57:29;25.17;;;15.50;;
6979;SDS011;3530;52.832;10.680;2024-03-22T10:00:15;28.42;;;16.30;;
6979;SDS011;3530;52.832;10.680;2024-03-22T10:03:02;29.75;;;16.33;;
6979;SDS011;3530;52.832;10.680;2024-03-22T10:05:49;28.60;;;15.80;;
6979;SDS011;3530;52.832;10.680;2024-03-22T10:08:34;25.33;;;14.73;;
6979;SDS011;3530;52.832;10.680;2024-03-22T10:11:20;34.53;;;17.58;;
6979;SDS011;3530;52.832;10.680;2024-03-22T10:14:06;30.35;;;16.90;;
6979;SDS011;3530;52.832;10.680;2024-03-22T10:16:52;30.55;;;16.92;;
6979;SDS011;3530;52.832;10.680;2024-03-22T10:19:39;39.00;;;17.60;;
6979;SDS011;3530;52.832;10.680;2024-03-22T10:22:26;25.50;;;13.80;;
6979;SDS011;3530;52.832;10.680;2024-03-22T10:25:11;33.58;;;18.98;;
6979;SDS011;3530;52.832;10.680;2024-03-22T10:28:00;32.20;;;17.48;;
6979;SDS011;3530;52.832;10.680;2024-03-22T10:30:46;26.90;;;17.20;;
6979;SDS011;3530;52.832;10.680;2024-03-22T10:33:32;31.90;;;18.20;;
6979;SDS011;3530;52.832;10.680;2024-03-22T10:36:18;27.85;;;13.95;;
6979;SDS011;3530;52.832;10.680;2024-03-22T10:39:05;35.38;;;17.17;;
6979;SDS011;3530;52.832;10.680;2024-03-22T10:41:52;28.50;;;15.88;;
6979;SDS011;3530;52.832;10.680;2024-03-22T10:44:38;26.50;;;14.23;;
6979;SDS011;3530;52.832;10.680;2024-03-22T10:47:24;28.60;;;16.80;;
6979;SDS011;3530;52.832;10.680;2024-03-22T10:50:15;27.35;;;16.85;;
6979;SDS011;3530;52.832;10.680;2024-03-22T10:53:05;35.10;;;18.55;;
6979;SDS011;3530;52.832;10.680;2024-03-22T10:55:52;28.20;;;14.25;;
6979;SDS011;3530;52.832;10.680;2024-03-22T10:58:41;29.42;;;17.52;;
6979;SDS011;3530;52.832;10.680;2024-03-22T11:01:27;33.72;;;20.38;;
6979;SDS011;3530;52.832;10.680;2024-03-22T11:04:19;32.97;;;18.95;;
6979;SDS011;3530;52.832;10.680;2024-03-22T11:07:07;26.52;;;16.50;;
6979;SDS011;3530;52.832;10.680;2024-03-22T11:09:55;35.38;;;20.23;;
6979;SDS011;3530;52.832;10.680;2024-03-22T11:12:41;28.40;;;14.20;;
6979;SDS011;3530;52.832;10.680;2024-03-22T11:15:28;33.22;;;19.85;;
6979;SDS011;3530;52.832;10.680;2024-03-22T11:18:13;30.35;;;15.60;;
6979;SDS011;3530;52.832;10.680;2024-03-22T11:20:59;33.17;;;19.98;;
6979;SDS011;3530;52.832;10.680;2024-03-22T11:23:45;37.53;;;21.20;;
6979;SDS011;3530;52.832;10.680;2024-03-22T11:26:31;28.50;;;16.58;;
6979;SDS011;3530;52.832;10.680;2024-03-22T11:29:17;28.48;;;18.80;;
6979;SDS011;3530;52.832;10.680;2024-03-22T11:32:03;33.25;;;16.95;;
6979;SDS011;3530;52.832;10.680;2024-03-22T11:34:49;27.23;;;16.20;;
6979;SDS011;3530;52.832;10.680;2024-03-22T11:37:35;33.45;;;19.30;;
6979;SDS011;3530;52.832;10.680;2024-03-22T11:40:20;26.67;;;15.55;;
6979;SDS011;3530;52.832;10.680;2024-03-22T11:43:06;30.23;;;19.17;;
6979;SDS011;3530;52.832;10.680;2024-03-22T11:45:52;31.90;;;18.35;;
6979;SDS011;3530;52.832;10.680;2024-03-22T11:48:39;27.42;;;16.63;;
6979;SDS011;3530;52.832;10.680;2024-03-22T11:51:25;28.17;;;18.40;;
6979;SDS011;3530;52.832;10.680;2024-03-22T11:54:11;36.47;;;20.98;;
6979;SDS011;3530;52.832;10.680;2024-03-22T11:56:56;34.10;;;20.10;;
6979;SDS011;3530;52.832;10.680;2024-03-22T11:59:42;30.13;;;19.38;;
6979;SDS011;3530;52.832;10.680;2024-03-22T12:02:28;32.13;;;19.40;;
6979;SDS011;3530;52.832;10.680;2024-03-22T12:05:13;35.08;;;20.15;;
6979;SDS011;3530;52.832;10.680;2024-03-22T12:07:59;26.65;;;15.30;;
6979;SDS011;3530;52.832;10.680;2024-03-22T12:10:45;33.63;;;20.55;;
6979;SDS011;3530;52.832;10.680;2024-03-22T12:13:30;27.40;;;18.02;;
6979;SDS011;3530;52.832;10.680;2024-03-22T12:16:16;29.90;;;17.08;;
6979;SDS011;3530;52.832;10.680;2024-03-22T12:19:02;30.80;;;16.83;;
6979;SDS011;3530;52.832;10.680;2024-03-22T12:21:48;22.75;;;14.75;;
6979;SDS011;3530;52.832;10.680;2024-03-22T12:24:34;27.77;;;16.08;;
6979;SDS011;3530;52.832;10.680;2024-03-22T12:27:19;32.05;;;18.92;;
6979;SDS011;3530;52.832;10.680;2024-03-22T12:30:05;32.42;;;20.15;;
6979;SDS011;3530;52.832;10.680;2024-03-22T12:32:51;31.02;;;20.60;;
6979;SDS011;3530;52.832;10.680;2024-03-22T12:35:39;32.70;;;18.35;;
6979;SDS011;3530;52.832;10.680;2024-03-22T12:38:25;29.48;;;17.70;;
6979;SDS011;3530;52.832;10.680;2024-03-22T12:41:10;31.13;;;18.55;;
6979;SDS011;3530;52.832;10.680;2024-03-22T12:43:56;29.92;;;19.88;;
6979;SDS011;3530;52.832;10.680;2024-03-22T12:46:42;38.72;;;21.20;;
6979;SDS011;3530;52.832;10.680;2024-03-22T12:49:29;26.90;;;16.98;;
6979;SDS011;3530;52.832;10.680;2024-03-22T12:52:15;33.85;;;19.75;;
6979;SDS011;3530;52.832;10.680;2024-03-22T12:55:00;34.10;;;18.60;;
6979;SDS011;3530;52.832;10.680;2024-03-22T12:57:46;25.45;;;16.38;;
6979;SDS011;3530;52.832;10.680;2024-03-22T13:00:32;25.55;;;16.20;;
6979;SDS011;3530;52.832;10.680;2024-03-22T13:03:18;30.42;;;16.17;;
6979;SDS011;3530;52.832;10.680;2024-03-22T13:06:04;25.58;;;14.65;;
6979;SDS011;3530;52.832;10.680;2024-03-22T13:08:50;26.73;;;16.00;;
6979;SDS011;3530;52.832;10.680;2024-03-22T13:11:36;28.17;;;16.52;;
6979;SDS011;3530;52.832;10.680;2024-03-22T13:14:22;27.92;;;15.48;;
6979;SDS011;3530;52.832;10.680;2024-03-22T13:17:08;30.35;;;18.05;;
6979;SDS011;3530;52.832;10.680;2024-03-22T13:19:54;26.40;;;16.25;;
6979;SDS011;3530;52.832;10.680;2024-03-22T13:22:40;30.02;;;18.23;;
6979;SDS011;3530;52.832;10.680;2024-03-22T13:25:25;21.70;;;14.45;;
6979;SDS011;3530;52.832;10.680;2024-03-22T13:28:11;27.25;;;14.85;;
6979;SDS011;3530;52.832;10.680;2024-03-22T13:31:03;22.02;;;12.98;;
6979;SDS011;3530;52.832;10.680;2024-03-22T13:33:51;22.52;;;14.43;;
6979;SDS011;3530;52.832;10.680;2024-03-22T13:36:36;28.05;;;16.73;;
6979;SDS011;3530;52.832;10.680;2024-03-22T13:39:23;25.90;;;14.70;;
6979;SDS011;3530;52.832;10.680;2024-03-22T13:42:08;29.17;;;17.20;;
6979;SDS011;3530;52.832;10.680;2024-03-22T13:44:55;20.85;;;14.50;;
6979;SDS011;3530;52.832;10.680;2024-03-22T13:47:42;23.67;;;14.25;;
6979;SDS011;3530;52.832;10.680;2024-03-22T13:50:27;29.52;;;16.20;;
6979;SDS011;3530;52.832;10.680;2024-03-22T13:53:13;25.65;;;15.43;;
6979;SDS011;3530;52.832;10.680;2024-03-22T13:56:00;23.83;;;14.82;;
6979;SDS011;3530;52.832;10.680;2024-03-22T13:58:46;19.45;;;12.50;;
6979;SDS011;3530;52.832;10.680;2024-03-22T14:01:32;19.08;;;12.40;;
6979;SDS011;3530;52.832;10.680;2024-03-22T14:04:18;15.57;;;10.27;;
6979;SDS011;3530;52.832;10.680;2024-03-22T14:07:04;12.73;;;8.00;;
6979;SDS011;3530;52.832;10.680;2024-03-22T14:09:50;17.30;;;11.68;;
6979;SDS011;3530;52.832;10.680;2024-03-22T14:12:36;17.38;;;11.60;;
6979;SDS011;3530;52.832;10.680;2024-03-22T14:15:21;14.80;;;10.70;;
6979;SDS011;3530;52.832;10.680;2024-03-22T14:18:10;17.48;;;10.60;;
6979;SDS011;3530;52.832;10.680;2024-03-22T14:20:55;18.17;;;11.88;;
6979;SDS011;3530;52.832;10.680;2024-03-22T14:23:41;17.45;;;10.68;;
6979;SDS011;3530;52.832;10.680;2024-03-22T14:26:27;22.40;;;9.30;;
6979;SDS011;3530;52.832;10.680;2024-03-22T14:29:12;17.13;;;12.32;;
6979;SDS011;3530;52.832;10.680;2024-03-22T14:31:58;18.20;;;10.65;;
6979;SDS011;3530;52.832;10.680;2024-03-22T14:34:44;15.85;;;11.18;;
6979;SDS011;3530;52.832;10.680;2024-03-22T14:37:29;14.65;;;10.45;;
6979;SDS011;3530;52.832;10.680;2024-03-22T14:40:15;16.73;;;10.45;;
6979;SDS011;3530;52.832;10.680;2024-03-22T14:43:02;22.55;;;12.75;;
6979;SDS011;3530;52.832;10.680;2024-03-22T14:45:48;18.48;;;11.50;;
6979;SDS011;3530;52.832;10.680;2024-03-22T14:48:34;20.17;;;12.70;;
6979;SDS011;3530;52.832;10.680;2024-03-22T14:51:20;19.35;;;11.35;;
6979;SDS011;3530;52.832;10.680;2024-03-22T14:54:05;20.83;;;11.43;;
6979;SDS011;3530;52.832;10.680;2024-03-22T14:56:51;17.00;;;11.23;;
6979;SDS011;3530;52.832;10.680;2024-03-22T14:59:39;23.15;;;14.25;;
6979;SDS011;3530;52.832;10.680;2024-03-22T15:02:24;18.00;;;11.35;;
6979;SDS011;3530;52.832;10.680;2024-03-22T15:05:10;22.00;;;12.77;;
6979;SDS011;3530;52.832;10.680;2024-03-22T15:07:56;20.65;;;13.75;;
6979;SDS011;3530;52.832;10.680;2024-03-22T15:10:41;21.58;;;13.57;;
6979;SDS011;3530;52.832;10.680;2024-03-22T15:13:27;18.95;;;12.98;;
6979;SDS011;3530;52.832;10.680;2024-03-22T15:16:13;19.42;;;12.82;;
6979;SDS011;3530;52.832;10.680;2024-03-22T15:18:58;22.23;;;12.90;;
6979;SDS011;3530;52.832;10.680;2024-03-22T15:21:44;22.63;;;12.82;;
6979;SDS011;3530;52.832;10.680;2024-03-22T15:24:30;17.23;;;11.07;;
6979;SDS011;3530;52.832;10.680;2024-03-22T15:27:15;21.30;;;12.35;;
6979;SDS011;3530;52.832;10.680;2024-03-22T15:30:01;16.60;;;11.50;;
6979;SDS011;3530;52.832;10.680;2024-03-22T15:32:47;19.67;;;11.52;;
6979;SDS011;3530;52.832;10.680;2024-03-22T15:35:32;17.85;;;12.05;;
6979;SDS011;3530;52.832;10.680;2024-03-22T15:38:18;16.63;;;10.57;;
6979;SDS011;3530;52.832;10.680;2024-03-22T15:41:05;16.42;;;10.90;;
6979;SDS011;3530;52.832;10.680;2024-03-22T15:43:50;15.27;;;10.40;;
6979;SDS011;3530;52.832;10.680;2024-03-22T15:46:36;15.07;;;10.30;;
6979;SDS011;3530;52.832;10.680;2024-03-22T15:49:21;14.63;;;10.65;;
6979;SDS011;3530;52.832;10.680;2024-03-22T15:52:07;20.55;;;11.43;;
6979;SDS011;3530;52.832;10.680;2024-03-22T15:54:53;15.90;;;10.88;;
6979;SDS011;3530;52.832;10.680;2024-03-22T15:57:39;12.75;;;9.70;;
6979;SDS011;3530;52.832;10.680;2024-03-22T16:00:25;13.05;;;8.80;;
6979;SDS011;3530;52.832;10.680;2024-03-22T16:03:11;14.25;;;9.15;;
6979;SDS011;3530;52.832;10.680;2024-03-22T16:05:59;17.63;;;10.90;;
6979;SDS011;3530;52.832;10.680;2024-03-22T16:08:45;13.70;;;10.40;;
6979;SDS011;3530;52.832;10.680;2024-03-22T16:11:31;14.68;;;9.45;;
6979;SDS011;3530;52.832;10.680;2024-03-22T16:14:16;13.30;;;8.13;;
6979;SDS011;3530;52.832;10.680;2024-03-22T16:17:02;12.55;;;9.15;;
6979;SDS011;3530;52.832;10.680;2024-03-22T16:19:48;11.77;;;8.45;;
6979;SDS011;3530;52.832;10.680;2024-03-22T16:22:34;12.90;;;9.30;;
6979;SDS011;3530;52.832;10.680;2024-03-22T16:25:20;19.05;;;10.38;;
6979;SDS011;3530;52.832;10.680;2024-03-22T16:28:06;16.98;;;11.60;;